createdAt,value
2018-09-12T00:01:08.187Z,99916.00
2018-09-12T00:03:36.645Z,99908.09
2018-09-12T00:06:05.090Z,99909.85
2018-09-12T00:08:33.563Z,99909.42
2018-09-12T00:11:02.044Z,99905.91
2018-09-12T00:13:30.489Z,99910.31
2018-09-12T00:15:58.949Z,99905.92
2018-09-12T00:18:27.382Z,99916.48
2018-09-12T00:20:56.041Z,99922.63
2018-09-12T00:23:24.514Z,99918.67
2018-09-12T00:25:53.232Z,99927.02
2018-09-12T00:28:21.766Z,99937.12
2018-09-12T00:30:51.553Z,99923.95
2018-09-12T00:33:19.990Z,99930.53
2018-09-12T00:35:48.470Z,99923.50
2018-09-12T00:38:17.168Z,99933.62
2018-09-12T00:40:45.659Z,99933.17
2018-09-12T00:43:15.663Z,99922.19
2018-09-12T00:45:44.295Z,99914.27
2018-09-12T00:48:12.733Z,99923.50
2018-09-12T00:50:41.200Z,99929.22
2018-09-12T00:53:09.670Z,99927.02
2018-09-12T00:55:38.174Z,99930.53
2018-09-12T00:58:06.629Z,99937.11
2018-09-12T01:00:35.129Z,99943.70
2018-09-12T01:03:03.570Z,99938.44
2018-09-12T01:05:32.799Z,99926.58
2018-09-12T01:08:01.313Z,99939.77
2018-09-12T01:10:29.750Z,99937.56
2018-09-12T01:12:58.183Z,99934.49
2018-09-12T01:15:26.738Z,99941.09
2018-09-12T01:17:55.166Z,99942.84
2018-09-12T01:20:23.812Z,99935.81
2018-09-12T01:22:52.443Z,99952.51
2018-09-12T01:25:20.877Z,99958.66
2018-09-12T01:27:53.577Z,99962.61
2018-09-12T01:30:23.373Z,99956.46
2018-09-12T01:32:53.010Z,99969.64
2018-09-12T01:35:21.725Z,99965.69
2018-09-12T01:37:50.240Z,99961.30
2018-09-12T01:40:18.686Z,99970.52
2018-09-12T01:42:47.154Z,99977.11
2018-09-12T01:45:16.957Z,99980.63
2018-09-12T01:47:45.477Z,99970.52
2018-09-12T01:50:14.230Z,99967.00
2018-09-12T01:52:42.710Z,99975.79
2018-09-12T01:55:11.150Z,99971.39
2018-09-12T01:57:39.686Z,99977.55
2018-09-12T02:00:13.667Z,99968.75
2018-09-12T02:02:42.281Z,99974.46
2018-09-12T02:05:10.741Z,99977.09
2018-09-12T02:07:39.386Z,99977.53
2018-09-12T02:10:09.545Z,99993.33
2018-09-12T02:12:38.011Z,99985.87
2018-09-12T02:15:06.860Z,99988.94
2018-09-12T02:17:35.329Z,99982.80
2018-09-12T02:20:04.201Z,99998.16
2018-09-12T02:22:32.881Z,100001.23
2018-09-12T02:25:01.731Z,99989.38
2018-09-12T02:27:30.223Z,100013.07
2018-09-12T02:29:58.741Z,99980.14
2018-09-12T02:32:27.313Z,99984.53
2018-09-12T02:34:56.218Z,99991.55
2018-09-12T02:37:24.781Z,99988.47
2018-09-12T02:39:53.389Z,99989.34
2018-09-12T02:42:22.526Z,99987.58
2018-09-12T02:44:51.546Z,99994.16
2018-09-12T02:47:25.396Z,100006.44
2018-09-12T02:49:54.318Z,99990.63
2018-09-12T02:52:22.766Z,99985.80
2018-09-12T02:54:51.559Z,100005.55
2018-09-12T02:57:19.982Z,99997.65
2018-09-12T02:59:48.441Z,100008.17
2018-09-12T03:02:16.939Z,100006.85
2018-09-12T03:04:45.403Z,100010.79
2018-09-12T03:07:13.938Z,100016.92
2018-09-12T03:09:42.544Z,100022.17
2018-09-12T03:12:10.973Z,100036.20
2018-09-12T03:14:39.393Z,100029.63
2018-09-12T03:17:07.842Z,100028.30
2018-09-12T03:19:36.306Z,100036.19
2018-09-12T03:22:04.901Z,100042.75
2018-09-12T03:24:33.680Z,100027.33
2018-09-12T03:27:02.266Z,100034.78
2018-09-12T03:29:30.750Z,100025.57
2018-09-12T03:31:59.354Z,100037.41
2018-09-12T03:34:27.842Z,100036.08
2018-09-12T03:36:56.842Z,100036.50
2018-09-12T03:39:25.455Z,100045.27
2018-09-12T03:41:53.877Z,100027.75
2018-09-12T03:44:22.330Z,100037.80
2018-09-12T03:46:50.781Z,100035.63
2018-09-12T03:49:19.204Z,100026.41
2018-09-12T03:51:47.637Z,100020.25
2018-09-12T03:54:16.122Z,100028.15
2018-09-12T03:56:45.261Z,100034.72
2018-09-12T03:59:14.398Z,100019.81
2018-09-12T04:01:42.926Z,100028.15
2018-09-12T04:04:11.357Z,100034.28
2018-09-12T04:06:39.802Z,100041.32
2018-09-12T04:09:09.221Z,100028.16
2018-09-12T04:11:37.685Z,100029.03
2018-09-12T04:14:06.193Z,100025.52
2018-09-12T04:16:34.697Z,100028.15
2018-09-12T04:19:03.141Z,100036.05
2018-09-12T04:21:31.621Z,100053.56
2018-09-12T04:24:00.093Z,100040.42
2018-09-12T04:26:28.554Z,100040.42
2018-09-12T04:28:57.423Z,100052.25
2018-09-12T04:31:25.894Z,100052.69
2018-09-12T04:33:54.337Z,100052.70
2018-09-12T04:36:22.806Z,100043.91
2018-09-12T04:38:52.142Z,100055.73
2018-09-12T04:41:20.598Z,100046.09
2018-09-12T04:43:49.030Z,100051.78
2018-09-12T04:46:17.477Z,100038.19
2018-09-12T04:48:45.953Z,100052.66
2018-09-12T04:51:14.389Z,100032.05
2018-09-12T04:53:42.865Z,100041.28
2018-09-12T04:56:11.434Z,100050.50
2018-09-12T04:58:41.221Z,100048.30
2018-09-12T05:01:10.050Z,100055.76
2018-09-12T05:03:38.485Z,100057.06
2018-09-12T05:06:07.176Z,100066.72
2018-09-12T05:08:35.661Z,100057.95
2018-09-12T05:11:04.098Z,100063.23
2018-09-12T05:13:32.552Z,100061.50
2018-09-12T05:16:01.078Z,100068.06
2018-09-12T05:18:29.465Z,100072.45
2018-09-12T05:20:57.923Z,100061.49
2018-09-12T05:23:26.418Z,100063.25
2018-09-12T05:25:54.874Z,100060.18
2018-09-12T05:28:23.376Z,100061.06
2018-09-12T05:30:53.217Z,100059.76
2018-09-12T05:33:22.034Z,100056.25
2018-09-12T05:35:50.550Z,100070.28
2018-09-12T05:38:19.284Z,100072.48
2018-09-12T05:40:48.000Z,100079.06
2018-09-12T05:43:16.455Z,100100.58
2018-09-12T05:45:44.968Z,100083.50
2018-09-12T05:48:13.456Z,100088.33
2018-09-12T05:50:41.902Z,100101.97
2018-09-12T05:53:10.390Z,100098.02
2018-09-12T05:55:38.832Z,100070.78
2018-09-12T05:58:07.618Z,100092.27
2018-09-12T06:00:36.194Z,100071.22
2018-09-12T06:03:04.783Z,100081.79
2018-09-12T06:05:33.269Z,100077.41
2018-09-12T06:08:01.851Z,100090.59
2018-09-12T06:10:30.295Z,100082.28
2018-09-12T06:12:58.721Z,100094.59
2018-09-12T06:15:27.177Z,100077.92
2018-09-12T06:17:55.717Z,100077.06
2018-09-12T06:20:24.176Z,100082.35
2018-09-12T06:22:52.653Z,100070.52
2018-09-12T06:25:27.229Z,100067.02
2018-09-12T06:27:55.745Z,100093.38
2018-09-12T06:30:33.098Z,100072.33
2018-09-12T06:33:02.873Z,100070.98
2018-09-12T06:35:31.399Z,100086.86
2018-09-12T06:37:59.881Z,100077.22
2018-09-12T06:40:28.447Z,100055.72
2018-09-12T06:42:57.462Z,100077.71
2018-09-12T06:45:25.897Z,100063.23
2018-09-12T06:47:54.428Z,100076.84
2018-09-12T06:50:22.873Z,100070.70
2018-09-12T06:52:51.410Z,100073.80
2018-09-12T06:55:19.874Z,100059.73
2018-09-12T06:57:48.414Z,100063.72
2018-09-12T07:00:16.889Z,100061.50
2018-09-12T07:02:46.238Z,100075.14
2018-09-12T07:05:15.083Z,100067.21
2018-09-12T07:07:43.613Z,100064.97
2018-09-12T07:10:12.156Z,100076.80
2018-09-12T07:12:40.600Z,100067.11
2018-09-12T07:15:09.093Z,100071.95
2018-09-12T07:17:37.545Z,100073.70
2018-09-12T07:20:06.042Z,100071.48
2018-09-12T07:22:34.474Z,100080.28
2018-09-12T07:25:02.948Z,100082.41
2018-09-12T07:27:31.389Z,100082.32
2018-09-12T07:29:59.901Z,100075.61
2018-09-12T07:32:28.357Z,100089.64
2018-09-12T07:34:56.937Z,100087.86
2018-09-12T07:37:25.881Z,100088.34
2018-09-12T07:39:54.517Z,100094.44
2018-09-12T07:42:23.246Z,100107.98
2018-09-12T07:44:52.143Z,100110.53
2018-09-12T07:47:20.621Z,100107.45
2018-09-12T07:49:49.049Z,100098.22
2018-09-12T07:52:17.481Z,100098.78
2018-09-12T07:54:46.014Z,100105.42
2018-09-12T07:57:14.503Z,100089.05
2018-09-12T07:59:43.694Z,100108.86
2018-09-12T08:02:12.227Z,100088.19
2018-09-12T08:04:41.580Z,100097.81
2018-09-12T08:07:10.020Z,100099.95
2018-09-12T08:09:38.465Z,100118.56
2018-09-12T08:12:06.927Z,100105.28
2018-09-12T08:14:35.355Z,100116.23
2018-09-12T08:17:03.853Z,100120.56
2018-09-12T08:19:32.282Z,100128.95
2018-09-12T08:22:00.702Z,100099.47
2018-09-12T08:24:29.174Z,100130.66
2018-09-12T08:26:57.864Z,100107.59
2018-09-12T08:29:26.350Z,100105.64
2018-09-12T08:31:54.830Z,100106.70
2018-09-12T08:34:23.261Z,100113.56
2018-09-12T08:36:51.861Z,100111.44
2018-09-12T08:39:20.364Z,100096.38
2018-09-12T08:41:48.830Z,100092.87
2018-09-12T08:44:17.386Z,100087.58
2018-09-12T08:46:45.945Z,100095.60
2018-09-12T08:49:15.080Z,100093.90
2018-09-12T08:51:44.178Z,100107.99
2018-09-12T08:54:12.721Z,100099.28
2018-09-12T08:56:41.204Z,100113.47
2018-09-12T08:59:09.601Z,100090.92
2018-09-12T09:01:38.221Z,100087.42
2018-09-12T09:04:07.104Z,100082.97
2018-09-12T09:06:35.850Z,100100.24
2018-09-12T09:09:06.750Z,100078.94
2018-09-12T09:11:35.287Z,100084.89
2018-09-12T09:14:04.786Z,100076.47
2018-09-12T09:16:33.358Z,100088.41
2018-09-12T09:19:02.476Z,100077.70
2018-09-12T09:21:31.547Z,100074.44
2018-09-12T09:24:00.155Z,100071.94
2018-09-12T09:26:28.582Z,100060.73
2018-09-12T09:28:57.213Z,100056.37
2018-09-12T09:31:25.722Z,100099.17
2018-09-12T09:33:54.302Z,100064.50
2018-09-12T09:36:22.997Z,100064.50
2018-09-12T09:38:51.897Z,100061.06
2018-09-12T09:41:20.369Z,100066.33
2018-09-12T09:43:48.791Z,100060.02
2018-09-12T09:46:17.266Z,100061.83
2018-09-12T09:48:45.990Z,100051.35
2018-09-12T09:51:15.081Z,100054.48
2018-09-12T09:53:44.500Z,100040.36
2018-09-12T09:56:13.903Z,100037.39
2018-09-12T09:58:43.253Z,100046.75
2018-09-12T10:01:16.974Z,100045.53
2018-09-12T10:03:51.158Z,100058.83
2018-09-12T10:06:20.606Z,100048.94
2018-09-12T10:08:56.946Z,100061.67
2018-09-12T10:11:25.501Z,100050.63
2018-09-12T10:13:53.969Z,100054.82
2018-09-12T10:16:22.956Z,100051.68
2018-09-12T10:18:51.470Z,100053.02
2018-09-12T10:21:19.899Z,100050.61
2018-09-12T10:23:48.442Z,100044.50
2018-09-12T10:26:18.012Z,100039.34
2018-09-12T10:28:46.483Z,100050.78
2018-09-12T10:31:15.250Z,100044.54
2018-09-12T10:33:43.752Z,100048.34
2018-09-12T10:36:12.181Z,100055.92
2018-09-12T10:38:40.613Z,100056.78
2018-09-12T10:41:09.468Z,100062.97
2018-09-12T10:43:37.869Z,100043.09
2018-09-12T10:46:06.358Z,100056.34
2018-09-12T10:48:34.840Z,100054.48
2018-09-12T10:51:03.315Z,100058.41
2018-09-12T10:53:31.950Z,100062.74
2018-09-12T10:56:00.423Z,100049.59
2018-09-12T10:58:29.399Z,100053.02
2018-09-12T11:00:57.847Z,100048.20
2018-09-12T11:03:26.365Z,100049.89
2018-09-12T11:05:54.785Z,100036.63
2018-09-12T11:08:23.377Z,100043.77
2018-09-12T11:10:52.338Z,100054.08
2018-09-12T11:13:20.775Z,100038.65
2018-09-12T11:15:49.764Z,100044.63
2018-09-12T11:18:18.234Z,100062.77
2018-09-12T11:20:46.729Z,100053.71
2018-09-12T11:23:15.153Z,100058.07
2018-09-12T11:25:45.126Z,100045.56
2018-09-12T11:28:13.541Z,100059.62
2018-09-12T11:30:42.278Z,100056.37
2018-09-12T11:33:11.202Z,100059.08
2018-09-12T11:35:39.630Z,100083.97
2018-09-12T11:38:08.088Z,100083.91
2018-09-12T11:40:36.591Z,100068.62
2018-09-12T11:43:05.210Z,100099.21
2018-09-12T11:45:33.653Z,100068.23
2018-09-12T11:48:02.125Z,100105.76
2018-09-12T11:50:30.661Z,100081.55
2018-09-12T11:52:59.124Z,100072.97
2018-09-12T11:55:27.604Z,100092.02
2018-09-12T11:57:56.080Z,100056.40
2018-09-12T12:00:24.514Z,100069.69
2018-09-12T12:02:52.997Z,100069.92
2018-09-12T12:05:21.830Z,100062.85
2018-09-12T12:07:50.966Z,100060.50
2018-09-12T12:10:19.543Z,100060.70
2018-09-12T12:12:48.090Z,100063.15
2018-09-12T12:15:16.565Z,100069.67
2018-09-12T12:17:45.071Z,100066.89
2018-09-12T12:20:14.147Z,100085.59
2018-09-12T12:22:42.674Z,100069.44
2018-09-12T12:25:11.265Z,100106.59
2018-09-12T12:27:39.802Z,100082.47
2018-09-12T12:30:08.273Z,100037.69
2018-09-12T12:32:36.850Z,100067.05
2018-09-12T12:35:05.439Z,100087.52
2018-09-12T12:37:33.933Z,100060.41
2018-09-12T12:40:02.422Z,100054.41
2018-09-12T12:42:30.854Z,100039.17
2018-09-12T12:44:59.466Z,100053.22
2018-09-12T12:47:28.280Z,100053.94
2018-09-12T12:49:57.063Z,100053.54
2018-09-12T12:52:25.517Z,100056.89
2018-09-12T12:54:54.050Z,100074.33
2018-09-12T12:57:23.073Z,100049.61
2018-09-12T12:59:51.498Z,100021.19
2018-09-12T13:02:19.986Z,100048.73
2018-09-12T13:04:48.425Z,100056.83
2018-09-12T13:07:16.898Z,100077.69
2018-09-12T13:09:45.374Z,100053.14
2018-09-12T13:12:13.814Z,100042.53
2018-09-12T13:14:42.557Z,100103.61
2018-09-12T13:17:11.011Z,100058.06
2018-09-12T13:19:39.458Z,100093.30
2018-09-12T13:22:07.913Z,100065.20
2018-09-12T13:24:36.402Z,100063.58
2018-09-12T13:27:04.830Z,100052.23
2018-09-12T13:29:33.379Z,100052.52
2018-09-12T13:32:01.993Z,100061.72
2018-09-12T13:34:30.763Z,100072.37
2018-09-12T13:36:59.146Z,100064.45
2018-09-12T13:39:28.791Z,100069.30
2018-09-12T13:41:57.223Z,100062.20
2018-09-12T13:44:25.732Z,100070.30
2018-09-12T13:46:54.329Z,100067.27
2018-09-12T13:49:22.760Z,100063.46
2018-09-12T13:51:51.915Z,100079.55
2018-09-12T13:54:20.416Z,100070.97
2018-09-12T13:56:49.188Z,100068.06
2018-09-12T13:59:17.628Z,100071.52
2018-09-12T14:01:46.916Z,100084.93
2018-09-12T14:04:16.226Z,100070.78
2018-09-12T14:06:44.729Z,100073.08
2018-09-12T14:09:13.221Z,100062.25
2018-09-12T14:11:41.690Z,100074.84
2018-09-12T14:14:10.420Z,100073.52
2018-09-12T14:16:39.396Z,100075.05
2018-09-12T14:19:07.854Z,100091.34
2018-09-12T14:21:36.292Z,100099.16
2018-09-12T14:24:04.918Z,100072.98
2018-09-12T14:26:33.354Z,100078.22
2018-09-12T14:29:01.781Z,100084.83
2018-09-12T14:31:30.653Z,100098.66
2018-09-12T14:33:59.133Z,100097.80
2018-09-12T14:36:27.574Z,100109.13
2018-09-12T14:38:56.082Z,100101.91
2018-09-12T14:41:24.526Z,100111.55
2018-09-12T14:43:52.962Z,100101.95
2018-09-12T14:46:21.470Z,100101.97
2018-09-12T14:48:50.069Z,100077.98
2018-09-12T14:51:18.510Z,100117.34
2018-09-12T14:53:47.073Z,100120.03
2018-09-12T14:56:16.075Z,100100.03
2018-09-12T14:58:44.809Z,100104.22
2018-09-12T15:01:13.595Z,100096.64
2018-09-12T15:03:42.051Z,100083.28
2018-09-12T15:06:10.755Z,100140.33
2018-09-12T15:08:39.240Z,100102.28
2018-09-12T15:11:07.733Z,100110.72
2018-09-12T15:13:36.177Z,100108.92
2018-09-12T15:16:04.931Z,100105.53
2018-09-12T15:18:33.706Z,100105.36
2018-09-12T15:21:02.145Z,100096.32
2018-09-12T15:23:30.602Z,100101.26
2018-09-12T15:25:59.042Z,100109.13
2018-09-12T15:28:27.506Z,100140.20
2018-09-12T15:30:56.475Z,100122.22
2018-09-12T15:33:25.028Z,100134.31
2018-09-12T15:35:53.502Z,100136.41
2018-09-12T15:38:22.445Z,100132.31
2018-09-12T15:40:50.951Z,100121.23
2018-09-12T15:43:19.459Z,100120.44
2018-09-12T15:45:47.930Z,100133.80
2018-09-12T15:48:17.003Z,100133.64
2018-09-12T15:50:46.071Z,100141.94
2018-09-12T15:53:14.749Z,100179.33
2018-09-12T15:55:43.187Z,100149.47
2018-09-12T15:58:11.644Z,100152.77
2018-09-12T16:00:40.118Z,100149.69
2018-09-12T16:03:08.553Z,100159.48
2018-09-12T16:05:37.066Z,100154.06
2018-09-12T16:08:05.794Z,100153.91
2018-09-12T16:10:34.245Z,100173.45
2018-09-12T16:13:02.717Z,100160.97
2018-09-12T16:15:31.198Z,100168.42
2018-09-12T16:18:00.337Z,100167.22
2018-09-12T16:20:28.997Z,100178.33
2018-09-12T16:22:57.450Z,100171.77
2018-09-12T16:25:25.935Z,100185.13
2018-09-12T16:27:54.381Z,100187.44
2018-09-12T16:30:22.844Z,100172.09
2018-09-12T16:32:51.363Z,100171.69
2018-09-12T16:35:19.893Z,100172.22
2018-09-12T16:37:48.357Z,100173.61
2018-09-12T16:40:17.101Z,100172.33
2018-09-12T16:42:46.034Z,100182.94
2018-09-12T16:45:14.862Z,100182.52
2018-09-12T16:47:43.705Z,100180.78
2018-09-12T16:50:12.141Z,100198.45
2018-09-12T16:52:40.950Z,100179.54
2018-09-12T16:55:09.397Z,100199.40
2018-09-12T16:57:37.821Z,100205.59
2018-09-12T17:00:06.400Z,100198.09
2018-09-12T17:02:35.138Z,100199.87
2018-09-12T17:05:03.693Z,100199.91
2018-09-12T17:07:32.146Z,100202.13
2018-09-12T17:10:00.568Z,100220.20
2018-09-12T17:12:29.346Z,100220.66
2018-09-12T17:14:57.818Z,100211.41
2018-09-12T17:17:26.261Z,100214.10
2018-09-12T17:19:54.719Z,100230.37
2018-09-12T17:22:23.312Z,100227.30
2018-09-12T17:24:51.743Z,100237.43
2018-09-12T17:27:20.163Z,100236.98
2018-09-12T17:29:48.881Z,100240.08
2018-09-12T17:32:17.357Z,100246.69
2018-09-12T17:34:46.525Z,100237.00
2018-09-12T17:37:15.548Z,100247.58
2018-09-12T17:39:44.769Z,100258.58
2018-09-12T17:42:13.208Z,100266.06
2018-09-12T17:44:41.679Z,100264.30
2018-09-12T17:47:10.133Z,100265.62
2018-09-12T17:49:38.593Z,100253.74
2018-09-12T17:52:07.097Z,100258.14
2018-09-12T17:54:35.829Z,100267.38
2018-09-12T17:57:04.303Z,100273.55
2018-09-12T17:59:32.766Z,100290.70
2018-09-12T18:02:01.498Z,100292.91
2018-09-12T18:04:29.925Z,100292.46
2018-09-12T18:06:58.370Z,100290.27
2018-09-12T18:09:26.802Z,100288.94
2018-09-12T18:11:55.298Z,100313.14
2018-09-12T18:14:23.833Z,100322.81
2018-09-12T18:16:52.285Z,100300.38
2018-09-12T18:19:20.737Z,100305.65
2018-09-12T18:21:49.289Z,100310.92
2018-09-12T18:24:17.877Z,100323.24
2018-09-12T18:26:46.381Z,100333.34
2018-09-12T18:29:15.685Z,100339.50
2018-09-12T18:31:44.134Z,100340.81
2018-09-12T18:34:12.569Z,100341.25
2018-09-12T18:36:41.332Z,100357.08
2018-09-12T18:39:10.466Z,100349.61
2018-09-12T18:41:38.942Z,100357.09
2018-09-12T18:44:08.179Z,100363.67
2018-09-12T18:46:36.639Z,100383.47
2018-09-12T18:49:05.122Z,100385.66
2018-09-12T18:51:33.618Z,100385.64
2018-09-12T18:54:02.159Z,100397.07
2018-09-12T18:56:30.681Z,100379.03
2018-09-12T18:58:59.211Z,100371.56
2018-09-12T19:01:27.694Z,100375.95
2018-09-12T19:03:56.138Z,100376.78
2018-09-12T19:06:24.633Z,100388.23
2018-09-12T19:08:53.118Z,100381.18
2018-09-12T19:11:21.666Z,100376.77
2018-09-12T19:13:50.162Z,100380.27
2018-09-12T19:16:18.634Z,100391.68
2018-09-12T19:18:47.179Z,100384.64
2018-09-12T19:21:16.560Z,100388.16
2018-09-12T19:23:45.366Z,100384.19
2018-09-12T19:26:14.274Z,100407.88
2018-09-12T19:28:42.812Z,100400.83
2018-09-12T19:31:11.259Z,100400.81
2018-09-12T19:33:39.736Z,100408.28
2018-09-12T19:36:08.517Z,100404.75
2018-09-12T19:38:36.981Z,100410.89
2018-09-12T19:41:05.437Z,100420.11
2018-09-12T19:43:33.939Z,100427.56
2018-09-12T19:46:02.414Z,100427.98
2018-09-12T19:48:30.849Z,100430.18
2018-09-12T19:50:59.348Z,100436.31
2018-09-12T19:53:27.809Z,100427.05
2018-09-12T19:55:56.269Z,100429.68
2018-09-12T19:58:24.949Z,100443.28
2018-09-12T20:00:53.969Z,100430.98
2018-09-12T20:03:22.458Z,100434.48
2018-09-12T20:05:50.973Z,100439.72
2018-09-12T20:08:19.414Z,100445.41
2018-09-12T20:10:47.891Z,100461.63
2018-09-12T20:13:16.926Z,100449.31
2018-09-12T20:15:45.457Z,100456.32
2018-09-12T20:18:14.448Z,100453.21
2018-09-12T20:20:42.989Z,100451.88
2018-09-12T20:23:11.455Z,100442.20
2018-09-12T20:25:40.094Z,100451.44
2018-09-12T20:28:08.997Z,100470.73
2018-09-12T20:30:37.446Z,100451.00
2018-09-12T20:33:05.926Z,100456.24
2018-09-12T20:35:34.419Z,100460.62
2018-09-12T20:38:03.196Z,100453.14
2018-09-12T20:40:31.681Z,100473.77
2018-09-12T20:43:00.187Z,100467.16
2018-09-12T20:45:28.640Z,100474.16
2018-09-12T20:47:57.094Z,100469.31
2018-09-12T20:50:25.641Z,100492.13
2018-09-12T20:52:54.099Z,100487.72
2018-09-12T20:55:22.529Z,100484.22
2018-09-12T20:57:51.247Z,100486.41
2018-09-12T21:00:19.958Z,100497.38
2018-09-12T21:02:48.517Z,100489.00
2018-09-12T21:05:17.097Z,100490.71
2018-09-12T21:07:45.638Z,100500.38
2018-09-12T21:10:14.089Z,100501.73
2018-09-12T21:12:42.547Z,100511.39
2018-09-12T21:15:10.986Z,100501.73
2018-09-12T21:17:39.439Z,100506.52
2018-09-12T21:20:08.000Z,100514.42
2018-09-12T21:22:36.428Z,100517.06
2018-09-12T21:25:04.953Z,100517.06
2018-09-12T21:27:33.432Z,100527.12
2018-09-12T21:30:02.141Z,100519.63
2018-09-12T21:32:30.589Z,100528.36
2018-09-12T21:34:59.065Z,100512.54
2018-09-12T21:37:28.221Z,100518.22
2018-09-12T21:39:56.672Z,100516.88
2018-09-12T21:42:25.505Z,100529.59
2018-09-12T21:44:54.481Z,100533.13
2018-09-12T21:47:22.933Z,100531.36
2018-09-12T21:49:51.419Z,100541.87
2018-09-12T21:52:20.481Z,100534.42
2018-09-12T21:54:48.929Z,100539.69
2018-09-12T21:57:17.452Z,100534.84
2018-09-12T21:59:45.901Z,100547.97
2018-09-12T22:02:14.865Z,100547.48
2018-09-12T22:04:43.353Z,100541.75
2018-09-12T22:07:11.970Z,100545.20
2018-09-12T22:09:40.424Z,100562.30
2018-09-12T22:12:08.977Z,100554.38
2018-09-12T22:14:37.403Z,100554.81
2018-09-12T22:17:05.935Z,100574.97
2018-09-12T22:19:34.824Z,100571.05
2018-09-12T22:22:03.262Z,100564.42
2018-09-12T22:24:31.734Z,100569.22
2018-09-12T22:27:00.203Z,100572.23
2018-09-12T22:29:29.017Z,100571.32
2018-09-12T22:31:57.683Z,100572.59
2018-09-12T22:34:26.160Z,100582.70
2018-09-12T22:36:54.907Z,100583.53
2018-09-12T22:39:23.349Z,100588.33
2018-09-12T22:41:51.826Z,100601.47
2018-09-12T22:44:20.361Z,100588.30
2018-09-12T22:46:48.813Z,100592.20
2018-09-12T22:49:17.265Z,100588.69
2018-09-12T22:51:46.325Z,100588.66
2018-09-12T22:54:14.757Z,100586.48
2018-09-12T22:56:43.217Z,100597.89
2018-09-12T22:59:11.657Z,100595.31
2018-09-12T23:01:40.083Z,100609.77
2018-09-12T23:04:09.006Z,100589.48
2018-09-12T23:06:37.911Z,100605.75
2018-09-12T23:09:08.265Z,100583.80
2018-09-12T23:11:36.777Z,100590.80
2018-09-12T23:14:06.043Z,100599.55
2018-09-12T23:16:34.467Z,100597.33
2018-09-12T23:19:02.950Z,100594.27
2018-09-12T23:21:31.414Z,100608.31
2018-09-12T23:23:59.885Z,100606.11
2018-09-12T23:26:28.405Z,100617.52
2018-09-12T23:28:56.826Z,100606.95
2018-09-12T23:31:25.687Z,100603.86
2018-09-12T23:33:54.514Z,100632.35
2018-09-12T23:36:23.309Z,100615.27
2018-09-12T23:38:51.793Z,100611.76
2018-09-12T23:41:20.270Z,100610.80
2018-09-12T23:43:49.041Z,100622.11
2018-09-12T23:46:17.753Z,100630.48
2018-09-12T23:48:46.953Z,100592.96
2018-09-12T23:51:15.383Z,100626.56
2018-09-12T23:53:43.810Z,100636.63
2018-09-12T23:56:12.273Z,100638.38
2018-09-12T23:58:40.843Z,100640.15
